Terminal Aerodrome Forecast
Issued by NWS Cleveland, OH

Home | Current Version | Previous Version | Text Only | Print | Product List | Glossary Off
Versions: 1 2 3 4 5 6 7 8 9 10 11 12 13 14 15 16 17 18 19 20 21 22 23 24 25 26 27 28 29 30 31 32 33 34

383
FTUS41 KCLE 171137
TAFCLE
TAF
KCLE 171137Z 1712/1818 14010KT P6SM BKN035
      TEMPO 1712/1713 5SM -SHRA BR OVC015
     FM171300 16012KT 3SM -SHRA BR SCT015 OVC025
     FM171800 25012G22KT P6SM BKN025
     FM180000 25010KT 5SM BR VCSH BKN010=

USA.gov is the U.S. government's official web portal to all federal, state and local government web resources and services.